sensor_id;sensor_type;location;lat;lon;timestamp;P1;durP1;ratioP1;P2;durP2;ratioP2
3683;SDS011;1858;48.716;9.648;2023-08-20T05:26:45;13.10;;;7.40;;
3683;SDS011;1858;48.716;9.648;2023-08-20T05:29:31;6.70;;;6.10;;
3683;SDS011;1858;48.716;9.648;2023-08-20T06:36:28;9.10;;;7.40;;
3683;SDS011;1858;48.716;9.648;2023-08-20T06:39:14;9.20;;;6.50;;
3683;SDS011;1858;48.716;9.648;2023-08-20T06:42:01;13.27;;;7.20;;
3683;SDS011;1858;48.716;9.648;2023-08-20T06:44:47;9.77;;;7.03;;
3683;SDS011;1858;48.716;9.648;2023-08-20T06:47:33;12.30;;;7.47;;
3683;SDS011;1858;48.716;9.648;2023-08-20T06:50:20;11.43;;;6.80;;
3683;SDS011;1858;48.716;9.648;2023-08-20T06:53:06;8.70;;;6.63;;
3683;SDS011;1858;48.716;9.648;2023-08-20T06:55:52;14.73;;;7.47;;
3683;SDS011;1858;48.716;9.648;2023-08-20T06:58:39;8.93;;;7.20;;
3683;SDS011;1858;48.716;9.648;2023-08-20T07:01:26;10.17;;;8.30;;
3683;SDS011;1858;48.716;9.648;2023-08-20T07:04:12;12.50;;;6.67;;
3683;SDS011;1858;48.716;9.648;2023-08-20T07:06:59;7.60;;;6.70;;
3683;SDS011;1858;48.716;9.648;2023-08-20T07:09:45;8.77;;;6.43;;
3683;SDS011;1858;48.716;9.648;2023-08-20T07:15:17;9.67;;;6.00;;
3683;SDS011;1858;48.716;9.648;2023-08-20T07:18:04;9.53;;;6.23;;
3683;SDS011;1858;48.716;9.648;2023-08-20T07:20:50;12.50;;;6.80;;
3683;SDS011;1858;48.716;9.648;2023-08-20T07:23:37;11.73;;;7.07;;
3683;SDS011;1858;48.716;9.648;2023-08-20T07:26:23;7.30;;;6.60;;
3683;SDS011;1858;48.716;9.648;2023-08-20T07:29:10;10.23;;;6.30;;
3683;SDS011;1858;48.716;9.648;2023-08-20T07:31:56;10.03;;;6.20;;
3683;SDS011;1858;48.716;9.648;2023-08-20T07:34:44;7.13;;;5.93;;
3683;SDS011;1858;48.716;9.648;2023-08-20T07:37:31;9.07;;;6.40;;
3683;SDS011;1858;48.716;9.648;2023-08-20T08:32:02;6.30;;;5.50;;
3683;SDS011;1858;48.716;9.648;2023-08-20T08:34:48;7.20;;;4.30;;
3683;SDS011;1858;48.716;9.648;2023-08-20T08:37:36;8.33;;;5.27;;
3683;SDS011;1858;48.716;9.648;2023-08-20T08:40:23;5.83;;;5.10;;
3683;SDS011;1858;48.716;9.648;2023-08-20T08:43:14;6.87;;;4.83;;
3683;SDS011;1858;48.716;9.648;2023-08-20T08:46:02;4.73;;;4.20;;
3683;SDS011;1858;48.716;9.648;2023-08-20T08:48:51;5.50;;;4.60;;
3683;SDS011;1858;48.716;9.648;2023-08-20T08:51:38;6.47;;;4.20;;
3683;SDS011;1858;48.716;9.648;2023-08-20T08:54:26;9.70;;;4.73;;
3683;SDS011;1858;48.716;9.648;2023-08-20T08:57:14;5.70;;;4.20;;
3683;SDS011;1858;48.716;9.648;2023-08-20T09:00:00;5.77;;;4.60;;
3683;SDS011;1858;48.716;9.648;2023-08-20T09:02:47;5.30;;;4.60;;
3683;SDS011;1858;48.716;9.648;2023-08-20T09:05:44;6.17;;;4.40;;
3683;SDS011;1858;48.716;9.648;2023-08-20T09:08:28;6.43;;;4.93;;
3683;SDS011;1858;48.716;9.648;2023-08-20T09:11:16;4.33;;;3.93;;
3683;SDS011;1858;48.716;9.648;2023-08-20T09:14:02;7.07;;;4.27;;
3683;SDS011;1858;48.716;9.648;2023-08-20T09:16:58;6.27;;;4.63;;
3683;SDS011;1858;48.716;9.648;2023-08-20T09:19:45;4.63;;;4.00;;
3683;SDS011;1858;48.716;9.648;2023-08-20T09:22:31;4.27;;;3.53;;
3683;SDS011;1858;48.716;9.648;2023-08-20T09:25:20;6.67;;;3.65;;
3683;SDS011;1858;48.716;9.648;2023-08-20T09:28:06;5.70;;;4.60;;
3683;SDS011;1858;48.716;9.648;2023-08-20T09:30:56;5.90;;;4.78;;
3683;SDS011;1858;48.716;9.648;2023-08-20T09:33:56;4.30;;;3.53;;
3683;SDS011;1858;48.716;9.648;2023-08-20T09:36:39;5.75;;;3.55;;
3683;SDS011;1858;48.716;9.648;2023-08-20T09:39:25;13.40;;;5.45;;
3683;SDS011;1858;48.716;9.648;2023-08-20T09:42:12;4.70;;;3.10;;
3683;SDS011;1858;48.716;9.648;2023-08-20T09:44:59;5.05;;;3.75;;
3683;SDS011;1858;48.716;9.648;2023-08-20T09:47:49;4.15;;;3.17;;
3683;SDS011;1858;48.716;9.648;2023-08-20T09:50:36;3.70;;;3.20;;
3683;SDS011;1858;48.716;9.648;2023-08-20T09:53:31;3.80;;;2.27;;
3683;SDS011;1858;48.716;9.648;2023-08-20T09:56:21;5.35;;;3.20;;
3683;SDS011;1858;48.716;9.648;2023-08-20T09:59:07;4.42;;;3.37;;
3683;SDS011;1858;48.716;9.648;2023-08-20T10:01:55;4.13;;;3.73;;
3683;SDS011;1858;48.716;9.648;2023-08-20T10:04:42;5.87;;;3.50;;
3683;SDS011;1858;48.716;9.648;2023-08-20T10:07:29;7.95;;;4.10;;
3683;SDS011;1858;48.716;9.648;2023-08-20T10:10:16;5.05;;;4.00;;
3683;SDS011;1858;48.716;9.648;2023-08-20T10:13:03;6.17;;;4.17;;
3683;SDS011;1858;48.716;9.648;2023-08-20T10:15:49;4.55;;;3.55;;
3683;SDS011;1858;48.716;9.648;2023-08-20T10:18:38;6.60;;;4.10;;
3683;SDS011;1858;48.716;9.648;2023-08-20T10:21:25;4.30;;;3.90;;
3683;SDS011;1858;48.716;9.648;2023-08-20T10:24:18;4.70;;;3.83;;
3683;SDS011;1858;48.716;9.648;2023-08-20T10:27:08;7.75;;;3.62;;
3683;SDS011;1858;48.716;9.648;2023-08-20T10:29:55;5.70;;;3.90;;
3683;SDS011;1858;48.716;9.648;2023-08-20T10:32:55;4.30;;;3.15;;
3683;SDS011;1858;48.716;9.648;2023-08-20T10:38:47;4.33;;;3.90;;
3683;SDS011;1858;48.716;9.648;2023-08-20T10:41:34;5.33;;;3.83;;
3683;SDS011;1858;48.716;9.648;2023-08-20T10:44:21;4.90;;;3.90;;
3683;SDS011;1858;48.716;9.648;2023-08-20T10:47:09;5.97;;;3.75;;
3683;SDS011;1858;48.716;9.648;2023-08-20T10:49:59;6.30;;;4.23;;
3683;SDS011;1858;48.716;9.648;2023-08-20T10:52:48;4.80;;;3.80;;
3683;SDS011;1858;48.716;9.648;2023-08-20T10:55:35;5.35;;;4.15;;
3683;SDS011;1858;48.716;9.648;2023-08-20T10:58:23;6.27;;;4.60;;
3683;SDS011;1858;48.716;9.648;2023-08-20T11:04:16;5.90;;;3.73;;
3683;SDS011;1858;48.716;9.648;2023-08-20T11:07:04;7.67;;;3.80;;
3683;SDS011;1858;48.716;9.648;2023-08-20T11:09:51;6.20;;;3.90;;
3683;SDS011;1858;48.716;9.648;2023-08-20T11:12:37;4.97;;;3.17;;
3683;SDS011;1858;48.716;9.648;2023-08-20T11:15:23;5.03;;;3.43;;
3683;SDS011;1858;48.716;9.648;2023-08-20T11:18:11;3.90;;;3.50;;
3683;SDS011;1858;48.716;9.648;2023-08-20T11:20:57;4.70;;;3.43;;
3683;SDS011;1858;48.716;9.648;2023-08-20T11:26:53;4.50;;;3.37;;
3683;SDS011;1858;48.716;9.648;2023-08-20T11:29:43;4.30;;;3.40;;
3683;SDS011;1858;48.716;9.648;2023-08-20T11:32:31;3.90;;;3.33;;
3683;SDS011;1858;48.716;9.648;2023-08-20T11:35:18;3.40;;;2.90;;
3683;SDS011;1858;48.716;9.648;2023-08-20T11:38:05;6.53;;;4.37;;
3683;SDS011;1858;48.716;9.648;2023-08-20T11:40:52;7.80;;;4.00;;
3683;SDS011;1858;48.716;9.648;2023-08-20T11:43:40;6.97;;;3.93;;
3683;SDS011;1858;48.716;9.648;2023-08-20T11:46:26;4.60;;;3.37;;
3683;SDS011;1858;48.716;9.648;2023-08-20T11:49:13;7.10;;;3.47;;
3683;SDS011;1858;48.716;9.648;2023-08-20T11:52:00;6.20;;;3.10;;
3683;SDS011;1858;48.716;9.648;2023-08-20T11:54:46;5.07;;;2.77;;
3683;SDS011;1858;48.716;9.648;2023-08-20T11:57:33;3.93;;;3.10;;
3683;SDS011;1858;48.716;9.648;2023-08-20T12:00:26;5.77;;;3.50;;
3683;SDS011;1858;48.716;9.648;2023-08-20T12:03:14;8.37;;;4.57;;
3683;SDS011;1858;48.716;9.648;2023-08-20T12:06:14;9.40;;;3.80;;
3683;SDS011;1858;48.716;9.648;2023-08-20T12:09:20;5.60;;;3.87;;
3683;SDS011;1858;48.716;9.648;2023-08-20T12:12:08;6.90;;;4.10;;
3683;SDS011;1858;48.716;9.648;2023-08-20T12:14:55;6.70;;;3.90;;
3683;SDS011;1858;48.716;9.648;2023-08-20T12:17:41;7.93;;;3.80;;
3683;SDS011;1858;48.716;9.648;2023-08-20T12:20:28;5.53;;;3.40;;
3683;SDS011;1858;48.716;9.648;2023-08-20T12:23:16;6.07;;;4.40;;
3683;SDS011;1858;48.716;9.648;2023-08-20T12:26:02;5.50;;;3.60;;
3683;SDS011;1858;48.716;9.648;2023-08-20T12:28:48;7.70;;;4.73;;
3683;SDS011;1858;48.716;9.648;2023-08-20T12:31:34;5.70;;;4.00;;
3683;SDS011;1858;48.716;9.648;2023-08-20T12:37:27;5.60;;;4.30;;
3683;SDS011;1858;48.716;9.648;2023-08-20T12:40:13;5.87;;;4.13;;
3683;SDS011;1858;48.716;9.648;2023-08-20T12:43:00;15.43;;;4.97;;
3683;SDS011;1858;48.716;9.648;2023-08-20T12:45:47;6.60;;;3.70;;
3683;SDS011;1858;48.716;9.648;2023-08-20T12:48:33;4.97;;;4.10;;
3683;SDS011;1858;48.716;9.648;2023-08-20T12:51:20;7.80;;;5.03;;
3683;SDS011;1858;48.716;9.648;2023-08-20T12:54:06;6.97;;;4.30;;
3683;SDS011;1858;48.716;9.648;2023-08-20T12:56:53;5.30;;;3.67;;
3683;SDS011;1858;48.716;9.648;2023-08-20T12:59:39;6.20;;;4.77;;
3683;SDS011;1858;48.716;9.648;2023-08-20T13:02:26;4.20;;;3.70;;
3683;SDS011;1858;48.716;9.648;2023-08-20T13:05:13;5.60;;;4.20;;
3683;SDS011;1858;48.716;9.648;2023-08-20T13:08:00;7.80;;;4.60;;
3683;SDS011;1858;48.716;9.648;2023-08-20T13:10:49;5.07;;;3.67;;
3683;SDS011;1858;48.716;9.648;2023-08-20T13:13:36;4.47;;;4.00;;
3683;SDS011;1858;48.716;9.648;2023-08-20T13:16:22;5.63;;;4.47;;
3683;SDS011;1858;48.716;9.648;2023-08-20T13:19:09;5.60;;;3.90;;
3683;SDS011;1858;48.716;9.648;2023-08-20T13:21:55;7.33;;;3.80;;
3683;SDS011;1858;48.716;9.648;2023-08-20T13:24:42;6.07;;;4.27;;
3683;SDS011;1858;48.716;9.648;2023-08-20T13:27:28;6.33;;;4.87;;
3683;SDS011;1858;48.716;9.648;2023-08-20T13:30:14;11.37;;;4.67;;
3683;SDS011;1858;48.716;9.648;2023-08-20T13:33:02;5.93;;;4.30;;
3683;SDS011;1858;48.716;9.648;2023-08-20T13:35:49;8.47;;;4.50;;
3683;SDS011;1858;48.716;9.648;2023-08-20T13:38:36;6.57;;;3.93;;
3683;SDS011;1858;48.716;9.648;2023-08-20T13:41:23;14.43;;;4.17;;
3683;SDS011;1858;48.716;9.648;2023-08-20T13:44:09;9.30;;;4.40;;
3683;SDS011;1858;48.716;9.648;2023-08-20T13:46:56;5.10;;;3.73;;
3683;SDS011;1858;48.716;9.648;2023-08-20T13:49:42;7.97;;;4.20;;
3683;SDS011;1858;48.716;9.648;2023-08-20T13:52:28;8.13;;;4.10;;
3683;SDS011;1858;48.716;9.648;2023-08-20T13:55:15;7.10;;;3.83;;
3683;SDS011;1858;48.716;9.648;2023-08-20T13:58:02;4.23;;;3.50;;
3683;SDS011;1858;48.716;9.648;2023-08-20T14:00:48;5.23;;;3.60;;
3683;SDS011;1858;48.716;9.648;2023-08-20T14:03:35;6.00;;;4.90;;
3683;SDS011;1858;48.716;9.648;2023-08-20T14:06:21;6.20;;;4.53;;
3683;SDS011;1858;48.716;9.648;2023-08-20T14:09:07;4.70;;;4.20;;
3683;SDS011;1858;48.716;9.648;2023-08-20T14:11:54;9.03;;;4.43;;
3683;SDS011;1858;48.716;9.648;2023-08-20T14:14:40;5.77;;;4.60;;
3683;SDS011;1858;48.716;9.648;2023-08-20T14:17:27;5.90;;;4.37;;
3683;SDS011;1858;48.716;9.648;2023-08-20T14:20:15;6.03;;;4.43;;
3683;SDS011;1858;48.716;9.648;2023-08-20T14:23:01;6.90;;;4.23;;
3683;SDS011;1858;48.716;9.648;2023-08-20T14:25:47;5.70;;;4.30;;
3683;SDS011;1858;48.716;9.648;2023-08-20T14:28:34;6.40;;;4.53;;
3683;SDS011;1858;48.716;9.648;2023-08-20T14:31:20;5.83;;;4.37;;
3683;SDS011;1858;48.716;9.648;2023-08-20T14:34:06;5.33;;;4.40;;
3683;SDS011;1858;48.716;9.648;2023-08-20T14:36:53;4.70;;;4.20;;
3683;SDS011;1858;48.716;9.648;2023-08-20T14:39:39;4.73;;;3.40;;
3683;SDS011;1858;48.716;9.648;2023-08-20T14:42:26;6.17;;;4.63;;
3683;SDS011;1858;48.716;9.648;2023-08-20T14:45:13;8.60;;;4.40;;
3683;SDS011;1858;48.716;9.648;2023-08-20T14:47:59;5.77;;;4.77;;
3683;SDS011;1858;48.716;9.648;2023-08-20T14:50:45;5.90;;;4.00;;
3683;SDS011;1858;48.716;9.648;2023-08-20T14:53:33;5.97;;;4.23;;
3683;SDS011;1858;48.716;9.648;2023-08-20T14:56:19;7.93;;;4.50;;
3683;SDS011;1858;48.716;9.648;2023-08-20T14:59:05;5.43;;;3.73;;
3683;SDS011;1858;48.716;9.648;2023-08-20T15:01:53;7.00;;;4.47;;
3683;SDS011;1858;48.716;9.648;2023-08-20T15:04:39;8.80;;;4.30;;
3683;SDS011;1858;48.716;9.648;2023-08-20T15:07:26;8.90;;;5.30;;
3683;SDS011;1858;48.716;9.648;2023-08-20T15:10:12;5.80;;;4.63;;
3683;SDS011;1858;48.716;9.648;2023-08-20T15:12:58;6.50;;;4.77;;
3683;SDS011;1858;48.716;9.648;2023-08-20T15:15:45;10.33;;;4.13;;
3683;SDS011;1858;48.716;9.648;2023-08-20T15:18:33;5.97;;;4.47;;
3683;SDS011;1858;48.716;9.648;2023-08-20T15:21:19;5.77;;;4.87;;
3683;SDS011;1858;48.716;9.648;2023-08-20T15:24:06;9.80;;;4.73;;
3683;SDS011;1858;48.716;9.648;2023-08-20T15:26:52;8.13;;;5.00;;
3683;SDS011;1858;48.716;9.648;2023-08-20T15:29:39;12.10;;;4.80;;
3683;SDS011;1858;48.716;9.648;2023-08-20T15:35:31;8.70;;;4.00;;
3683;SDS011;1858;48.716;9.648;2023-08-20T15:38:17;6.50;;;4.90;;
3683;SDS011;1858;48.716;9.648;2023-08-20T15:41:04;5.80;;;4.30;;
3683;SDS011;1858;48.716;9.648;2023-08-20T15:43:51;8.30;;;4.57;;
3683;SDS011;1858;48.716;9.648;2023-08-20T15:46:37;5.33;;;4.40;;
3683;SDS011;1858;48.716;9.648;2023-08-20T15:49:24;6.53;;;4.27;;
3683;SDS011;1858;48.716;9.648;2023-08-20T15:52:11;5.70;;;4.20;;
3683;SDS011;1858;48.716;9.648;2023-08-20T15:54:58;8.57;;;4.40;;
3683;SDS011;1858;48.716;9.648;2023-08-20T15:57:45;6.33;;;4.13;;
3683;SDS011;1858;48.716;9.648;2023-08-20T16:00:31;10.27;;;4.70;;
3683;SDS011;1858;48.716;9.648;2023-08-20T16:03:19;5.43;;;3.73;;
3683;SDS011;1858;48.716;9.648;2023-08-20T16:06:05;6.53;;;4.60;;
